Terminal Aerodrome Forecast
Issued by NWS Upton, NY

Home | Current Version | Previous Version | Text Only | Print | Product List | Glossary On
Versions: 1 2 3 4 5 6 7 8 9 10 11 12 13 14 15 16 17 18 19 20 21 22 23 24 25 26 27 28 29 30 31 32 33 34 35 36
853
FTUS41 KOKX 052345
TAFJFK
TAF
KJFK 052345Z 0600/0706 03012G19KT P6SM -RA OVC025
     FM060400 03010KT P6SM -RA OVC015
     FM060800 04012G19KT 3SM -RA BR SCT005 OVC009
     FM061200 05014G22KT 2SM RA BR OVC008
     FM061800 07015G23KT 1SM -RA BR OVC007
     FM070000 08011KT 1SM -DZ BR OVC005=

USA.gov is the U.S. government's official web portal to all federal, state and local government web resources and services.